• Join FlightAware (Why Join?)
  • Login
  • US Flag 
Gobble Gobble! 
02:18AM EST


 

Airport Tracker/Info


-or-


 

Live Flight TrackerFlight Track Log ✈ EJM685 ✈ 12-May-2013 ✈ KTEB - PANC

Flight Track Log - Related Links

Times and Time Zones

All times are in EDT time to prevent confusion due to time zone crossing. See the EJM685 flight status page for this flight to view local times or setup timezone preferences in your user account.

Time Position Orientation Groundspeed Altitude Reporting Facility
EDT Latitude Longitude Course Direction KTS MPH feet Rate Location/Type
08:26AM 40.8269 -74.1086 256° West 193 222 1,500  Level New York Center
08:27AM 40.8147 -74.1736 256° West 200 230 2,800 2,460 Climbing New York Center
08:28AM 40.8164 -74.2617 271° West 228 262 6,400 3,540 Climbing New York Center
08:29AM 40.8556 -74.3403 303° West 235 270 10,000 3,120 Climbing New York Center
08:30AM 40.9306 -74.3444 358° North 239 275 12,700 2,820 Climbing New York Center
08:31AM 41.0306 -74.3386 North 311 358 15,600 1,740 Climbing New York Center
08:32AM 41.1181 -74.3406 359° North 335 386 16,200 240 Climbing New York Center
08:33AM 41.2283 -74.3464 358° North 348 400 16,200  Level New York Center
08:34AM 41.3219 -74.3514 358° North 364 419 16,200 720 Level New York Center
08:35AM 41.4222 -74.4008 340° North 350 403 17,700 1,500 Climbing New York Center
08:36AM 41.4753 -74.5033 305° West 326 375 19,200 1,440 Climbing New York Center
08:38AM 41.5647 -74.7181 299° West 353 406 22,000 1,680 Climbing Boston Center
08:39AM 41.6331 -74.8372 308° West 385 443 24,300 2,160 Climbing Boston Center
08:40AM 41.7286 -74.9436 320° Northwest 408 470 26,400 1,860 Climbing Boston Center
08:41AM 41.8264 -75.0533 320° Northwest 439 505 28,100 1,740 Climbing Boston Center
08:42AM 41.9300 -75.1639 322° Northwest 460 529 29,900 1,980 Climbing Boston Center
08:43AM 42.0314 -75.2800 320° Northwest 472 543 32,100 2,040 Climbing Boston Center
08:44AM 42.1414 -75.3775 327° Northwest 472 543 34,000 1,740 Climbing Boston Center
08:45AM 42.2597 -75.4728 329° Northwest 477 549 35,600 1,800 Climbing Boston Center
08:46AM 42.3700 -75.5653 328° Northwest 483 556 37,700 1,500 Climbing Boston Center
08:47AM 42.4842 -75.6556 330° Northwest 478 550 38,700 960 Climbing Boston Center
08:48AM 42.5981 -75.7489 329° Northwest 473 544 39,700 960 Climbing Boston Center
08:49AM 42.7142 -75.8428 329° Northwest 478 550 40,700 960 Climbing Boston Center
08:50AM 42.8261 -75.9339 329° Northwest 478 550 41,700 900 Climbing Boston Center
08:51AM 42.9422 -76.0256 330° Northwest 478 550 42,500 600 Climbing Boston Center
08:52AM 43.0558 -76.1203 329° Northwest 478 550 43,000 240 Climbing Boston Center
08:53AM 43.1694 -76.2153 329° Northwest 478 550 43,000  Level Boston Center
08:54AM 43.2872 -76.3139 329° Northwest 483 556 43,000  Level Boston Center
08:55AM 43.4003 -76.4156 327° Northwest 483 556 43,000  Level Boston Center
08:56AM 43.5156 -76.5175 327° Northwest 483 556 43,000  Level Boston Center
08:57AM 43.6308 -76.6172 328° Northwest 483 556 43,000  Level Boston Center
08:57AM 43.7000 -76.6500 341° North 490 564 43,000  Level Toronto Center
08:58AM 43.8333 -76.7667 328° Northwest 490 564 43,000  Level Toronto Center
08:59AM 43.9333 -76.8833 320° Northwest 500 575 43,000  Level Toronto Center
09:00AM 44.0500 -76.9667 333° Northwest 500 575 43,000  Level Toronto Center
09:01AM 44.1500 -77.0833 320° Northwest 500 575 43,000  Level Montreal Center
09:02AM 44.2833 -77.1833 332° Northwest 500 575 43,000  Level Toronto Center
09:03AM 44.4000 -77.3000 324° Northwest 490 564 43,000  Level Toronto Center
09:04AM 44.5167 -77.3833 333° Northwest 490 564 43,000  Level Toronto Center
09:05AM 44.6333 -77.5000 325° Northwest 490 564 43,000  Level Toronto Center
09:06AM 44.7167 -77.6167 315° West 480 552 43,000  Level Montreal Center
09:07AM 44.8500 -77.7000 336° Northwest 480 552 43,000  Level Toronto Center
09:08AM 44.9667 -77.8167 325° Northwest 480 552 43,000  Level Toronto Center
09:09AM 45.0667 -77.9167 325° Northwest 490 564 43,000  Level Toronto Center
09:10AM 45.1833 -78.0167 329° Northwest 500 575 43,000  Level Toronto Center
09:11AM 45.3000 -78.1333 325° Northwest 490 564 43,000  Level Toronto Center
09:12AM 45.4000 -78.2333 325° Northwest 490 564 43,000  Level Toronto Center
09:13AM 45.5167 -78.3500 325° Northwest 490 564 43,000  Level Toronto Center
09:14AM 45.6500 -78.4667 329° Northwest 500 575 43,000  Level Toronto Center
09:15AM 45.7667 -78.5833 325° Northwest 500 575 43,000  Level Toronto Center
09:16AM 45.8667 -78.6667 330° Northwest 500 575 43,000  Level Toronto Center
09:17AM 45.9833 -78.8000 322° Northwest 490 564 43,000  Level Toronto Center
09:18AM 46.1000 -78.9167 325° Northwest 490 564 43,000  Level Toronto Center
09:19AM 46.2167 -79.0333 325° Northwest 500 575 43,000  Level Toronto Center
09:20AM 46.3167 -79.1167 330° Northwest 500 575 43,000  Level Toronto Center
09:21AM 46.4333 -79.2500 322° Northwest 490 564 43,000  Level Toronto Center
09:22AM 46.5500 -79.3667 325° Northwest 490 564 43,000  Level Toronto Center
09:23AM 46.6667 -79.4667 330° Northwest 500 575 43,000  Level Toronto Center
09:24AM 46.7667 -79.5833 321° Northwest 490 564 43,000  Level Toronto Center
09:25AM 46.8833 -79.7000 326° Northwest 490 564 43,000  Level Toronto Center
09:26AM 47.0000 -79.8000 330° Northwest 490 564 43,000  Level Toronto Center
09:27AM 47.1000 -79.9333 318° Northwest 500 575 43,000  Level Toronto Center
09:28AM 47.2167 -80.0500 326° Northwest 500 575 43,000  Level Toronto Center
09:29AM 47.3333 -80.1667 326° Northwest 500 575 43,000  Level Toronto Center
09:30AM 47.4500 -80.3000 322° Northwest 500 575 43,000  Level Toronto Center
09:31AM 47.5667 -80.4000 330° Northwest 500 575 43,000  Level Toronto Center
09:32AM 47.6667 -80.5167 322° Northwest 500 575 43,000  Level Toronto Center
09:33AM 47.7833 -80.6500 322° Northwest 500 575 43,000  Level Toronto Center
09:34AM 47.9000 -80.7500 330° Northwest 490 564 43,000  Level Toronto Center
09:35AM 48.0167 -80.8833 323° Northwest 490 564 43,000  Level Toronto Center
09:36AM 48.1167 -81.0000 322° Northwest 500 575 43,000  Level Toronto Center
09:37AM 48.2167 -81.1000 326° Northwest 490 564 43,000  Level Toronto Center
09:38AM 48.3333 -81.2333 323° Northwest 490 564 43,000  Level Toronto Center
09:39AM 48.4500 -81.3667 323° Northwest 490 564 43,000  Level Toronto Center
09:40AM 48.5500 -81.4667 327° Northwest 490 564 43,000  Level Toronto Center
09:41AM 48.6667 -81.6000 323° Northwest 490 564 43,000  Level Toronto Center
09:42AM 48.7667 -81.7333 319° Northwest 490 564 43,000  Level Toronto Center
09:43AM 48.8833 -81.8333 331° Northwest 490 564 43,000  Level Toronto Center
09:44AM 49.0000 -81.9667 323° Northwest 490 564 43,000  Level Toronto Center
09:45AM 49.1000 -82.1000 319° Northwest 490 564 43,000  Level Toronto Center
09:46AM 49.2000 -82.2000 327° Northwest 480 552 43,000  Level Toronto Center
09:47AM 49.3167 -82.3333 323° Northwest 480 552 43,000  Level Toronto Center
09:48AM 49.4167 -82.4667 319° Northwest 490 564 43,000  Level Toronto Center
09:49AM 49.5333 -82.6000 323° Northwest 480 552 43,000  Level Toronto Center
09:50AM 49.5833 -82.7167 303° West 480 552 43,000  Level Montreal Center
09:51AM 49.7000 -82.8667 320° Northwest 480 552 43,000  Level Montreal Center
09:51AM 49.7167 -82.8667 360° North 480 552 43,000  Level Toronto Center
09:52AM 49.7833 -83.0000 308° West 480 552 43,000  Level Montreal Center
09:53AM 49.8833 -83.1500 316° Northwest 480 552 43,000  Level Montreal Center
09:54AM 49.9833 -83.2667 323° Northwest 470 541 43,000  Level Montreal Center
09:55AM 50.0833 -83.4167 316° Northwest 470 541 43,000  Level Montreal Center
09:56AM 50.1833 -83.5667 316° Northwest 470 541 43,000  Level Montreal Center
09:57AM 50.2833 -83.7167 316° Northwest 470 541 43,000  Level Montreal Center
09:58AM 50.3833 -83.8333 323° Northwest 470 541 43,000  Level Montreal Center
09:59AM 50.4667 -83.9833 311° West 470 541 43,000  Level Montreal Center
10:00AM 50.5667 -84.1333 316° Northwest 480 552 43,000  Level Montreal Center
10:01AM 50.6667 -84.2833 316° Northwest 480 552 43,000  Level Montreal Center
10:02AM 50.7000 -84.2833 360° North 480 552 43,000  Level Edmonton Center
10:03AM 50.8000 -84.4333 317° Northwest 470 541 43,000  Level Edmonton Center
10:04AM 50.9000 -84.5833 317° Northwest 470 541 43,000  Level Edmonton Center
10:05AM 51.0000 -84.7333 317° Northwest 470 541 43,000  Level Edmonton Center
10:06AM 51.0833 -84.8500 319° Northwest 470 541 43,000  Level Edmonton Center
10:07AM 51.1833 -85.0000 317° Northwest 470 541 43,000  Level Edmonton Center
10:08AM 51.2667 -85.1500 312° West 470 541 43,000  Level Edmonton Center
10:09AM 51.3500 -85.2833 315° West 470 541 43,000  Level Edmonton Center
10:10AM 51.4500 -85.4333 317° Northwest 460 529 43,000  Level Edmonton Center
10:11AM 51.5500 -85.5833 317° Northwest 460 529 43,000  Level Edmonton Center
10:12AM 51.6333 -85.7167 315° West 460 529 43,000  Level Edmonton Center
10:13AM 51.7167 -85.8667 312° West 460 529 43,000  Level Edmonton Center
10:14AM 51.8167 -86.0167 317° Northwest 460 529 43,000  Level Edmonton Center
10:15AM 51.9167 -86.1667 317° Northwest 460 529 43,000  Level Edmonton Center
10:16AM 52.0000 -86.3000 315° West 460 529 43,000  Level Edmonton Center
10:17AM 52.1000 -86.4500 317° Northwest 460 529 43,000  Level Edmonton Center
10:18AM 52.1833 -86.5833 316° Northwest 460 529 43,000  Level Edmonton Center
10:19AM 52.2667 -86.7333 312° West 450 518 43,000  Level Edmonton Center
10:20AM 52.3667 -86.8667 321° Northwest 450 518 43,000  Level Edmonton Center
10:21AM 52.4667 -87.0333 315° West 450 518 43,000  Level Edmonton Center
10:22AM 52.5333 -87.2000 303° West 450 518 43,000  Level Edmonton Center
10:23AM 52.6333 -87.3333 321° Northwest 450 518 43,000  Level Edmonton Center
10:24AM 52.7000 -87.5000 303° West 450 518 43,000  Level Edmonton Center
10:25AM 52.8000 -87.6167 325° Northwest 450 518 43,000  Level Edmonton Center
10:26AM 52.9000 -87.7833 315° West 450 518 43,000  Level Edmonton Center
10:27AM 52.9667 -87.9500 304° West 450 518 43,000  Level Edmonton Center
10:28AM 53.0667 -88.0833 321° Northwest 450 518 43,000  Level Edmonton Center
10:29AM 53.1500 -88.2500 310° West 450 518 43,000  Level Edmonton Center
10:30AM 53.2333 -88.4000 313° West 440 506 43,000  Level Edmonton Center
10:31AM 53.3167 -88.5667 310° West 450 518 43,000  Level Edmonton Center
10:32AM 53.4167 -88.7000 322° Northwest 450 518 43,000  Level Edmonton Center
10:33AM 53.4833 -88.8667 304° West 440 506 43,000  Level Edmonton Center
10:34AM 53.5833 -89.0000 322° Northwest 440 506 43,000  Level Edmonton Center
10:35AM 53.6500 -89.1500 307° West 440 506 43,000  Level Edmonton Center
10:36AM 53.7333 -89.3167 310° West 440 506 43,000  Level Edmonton Center
10:37AM 53.8333 -89.4667 319° Northwest 440 506 43,000  Level Edmonton Center
10:38AM 53.9000 -89.6167 307° West 430 495 43,000  Level Edmonton Center
10:39AM 54.0000 -89.7833 316° Northwest 430 495 43,000  Level Edmonton Center
10:40AM 54.0667 -89.9333 307° West 440 506 43,000  Level Edmonton Center
10:41AM 54.1500 -90.0667 317° Northwest 430 495 43,000  Level Edmonton Center
10:42AM 54.2167 -90.2167 307° West 430 495 43,000  Level Edmonton Center
10:43AM 54.3167 -90.4000 313° West 440 506 43,000  Level Edmonton Center
10:44AM 54.3833 -90.5500 307° West 430 495 43,000  Level Edmonton Center
10:45AM 54.4833 -90.7167 316° Northwest 430 495 43,000  Level Edmonton Center
10:46AM 54.5500 -90.8667 308° West 430 495 43,000  Level Edmonton Center
10:47AM 54.6333 -91.0167 314° West 440 506 43,000  Level Edmonton Center
10:48AM 54.7000 -91.1667 308° West 430 495 43,000  Level Edmonton Center
10:49AM 54.8000 -91.3500 313° West 430 495 43,000  Level Edmonton Center
10:50AM 54.8667 -91.5000 308° West 430 495 43,000  Level Edmonton Center
10:51AM 54.9500 -91.6500 314° West 430 495 43,000  Level Edmonton Center
10:52AM 55.0167 -91.8000 308° West 430 495 43,000  Level Edmonton Center
10:53AM 55.1000 -91.9833 309° West 430 495 43,000  Level Edmonton Center
10:54AM 55.1833 -92.1500 311° West 430 495 43,000  Level Edmonton Center
10:55AM 55.2667 -92.3000 314° West 430 495 43,000  Level Edmonton Center
10:56AM 55.3500 -92.4500 314° West 430 495 43,000  Level Edmonton Center
10:57AM 55.4167 -92.6167 305° West 430 495 43,000  Level Edmonton Center
10:58AM 55.4833 -92.8000 303° West 430 495 43,000  Level Edmonton Center
10:59AM 55.5667 -92.9500 315° West 430 495 43,000  Level Edmonton Center
11:00AM 55.6333 -93.1167 305° West 430 495 43,000  Level Edmonton Center
11:01AM 55.7167 -93.2667 315° West 420 483 43,000  Level Edmonton Center
11:02AM 55.7833 -93.4333 305° West 420 483 43,000  Level Edmonton Center
11:03AM 55.8833 -93.6167 314° West 420 483 43,000  Level Edmonton Center
11:04AM 55.9333 -93.7500 304° West 420 483 43,000  Level Edmonton Center
11:05AM 56.0333 -93.9333 314° West 420 483 43,000  Level Edmonton Center
11:06AM 56.1000 -94.1000 306° West 420 483 43,000  Level Edmonton Center
11:07AM 56.1833 -94.2667 312° West 420 483 43,000  Level Edmonton Center
11:08AM 56.2500 -94.4333 306° West 420 483 43,000  Level Edmonton Center
11:09AM 56.3000 -94.6000 298° West 420 483 43,000  Level Edmonton Center
11:10AM 56.3833 -94.7667 312° West 420 483 43,000  Level Edmonton Center
11:11AM 56.4500 -94.9333 306° West 420 483 43,000  Level Edmonton Center
11:12AM 56.5333 -95.1000 312° West 420 483 43,000  Level Edmonton Center
11:13AM 56.6000 -95.2667 306° West 420 483 43,000  Level Edmonton Center
11:14AM 56.6833 -95.4333 312° West 420 483 43,000  Level Edmonton Center
11:15AM 56.7667 -95.6000 312° West 410 472 43,000  Level Edmonton Center
11:16AM 56.8333 -95.7667 306° West 410 472 43,000  Level Edmonton Center
11:17AM 56.9167 -95.9333 313° West 410 472 43,000  Level Edmonton Center
11:18AM 56.9667 -96.1000 299° West 410 472 43,000  Level Edmonton Center
11:19AM 57.0500 -96.2333 319° Northwest 410 472 43,000  Level Edmonton Center
11:20AM 57.1167 -96.4167 304° West 410 472 43,000  Level Edmonton Center
11:21AM 57.2000 -96.5833 313° West 420 483 43,000  Level Edmonton Center
11:22AM 57.2667 -96.7667 304° West 410 472 43,000  Level Edmonton Center
11:23AM 57.3333 -96.9333 307° West 410 472 43,000  Level Edmonton Center
11:24AM 57.4000 -97.1000 307° West 410 472 43,000  Level Edmonton Center
11:25AM 57.4833 -97.2833 310° West 410 472 43,000  Level Edmonton Center
11:26AM 57.5500 -97.4500 307° West 410 472 43,000  Level Edmonton Center
11:27AM 57.6167 -97.6333 304° West 410 472 43,000  Level Edmonton Center
11:28AM 57.6833 -97.8167 304° West 410 472 43,000  Level Edmonton Center
11:29AM 57.7667 -97.9833 313° West 410 472 43,000  Level Edmonton Center
11:30AM 57.8167 -98.1667 297° West 420 483 43,000  Level Edmonton Center
11:31AM 57.9000 -98.3500 311° West 410 472 43,000  Level Edmonton Center
11:32AM 57.9500 -98.5000 302° West 410 472 43,000  Level Edmonton Center
11:33AM 58.0333 -98.6667 313° West 410 472 43,000  Level Edmonton Center
11:34AM 58.1000 -98.8500 305° West 410 472 43,000  Level Edmonton Center
11:35AM 58.1667 -99.0333 305° West 410 472 43,000  Level Edmonton Center
11:36AM 58.2333 -99.2167 305° West 410 472 43,000  Level Edmonton Center
11:37AM 58.3000 -99.4000 305° West 410 472 43,000  Level Edmonton Center
11:38AM 58.3667 -99.5833 305° West 410 472 43,000  Level Edmonton Center
11:39AM 58.4500 -99.7667 311° West 410 472 43,000  Level Edmonton Center
11:40AM 58.5167 -99.9500 305° West 420 483 43,000  Level Edmonton Center
11:41AM 58.5833 -100.1000 310° West 410 472 43,000  Level Edmonton Center
11:42AM 58.6500 -100.3000 303° West 410 472 43,000  Level Edmonton Center
11:43AM 58.7000 -100.4833 298° West 410 472 43,000  Level Edmonton Center
11:44AM 58.7833 -100.6667 311° West 410 472 43,000  Level Edmonton Center
11:45AM 58.8333 -100.8500 298° West 410 472 43,000  Level Edmonton Center
11:46AM 58.9167 -101.0500 309° West 410 472 43,000  Level Edmonton Center
11:47AM 58.9667 -101.2333 298° West 420 483 43,000  Level Edmonton Center
11:48AM 59.0500 -101.4333 309° West 410 472 43,000  Level Edmonton Center
11:49AM 59.1000 -101.6167 298° West 410 472 43,000  Level Edmonton Center
11:50AM 59.1667 -101.8167 303° West 410 472 43,000  Level Edmonton Center
11:51AM 59.2333 -102.0000 305° West 410 472 43,000  Level Edmonton Center
11:52AM 59.3000 -102.1667 308° West 410 472 43,000  Level Edmonton Center
11:53AM 59.3500 -102.3667 296° West 410 472 43,000  Level Edmonton Center
11:54AM 59.4333 -102.5500 312° West 410 472 43,000  Level Edmonton Center
11:55AM 59.4833 -102.7500 296° West 410 472 43,000  Level Edmonton Center
11:56AM 59.5500 -102.9500 303° West 410 472 43,000  Level Edmonton Center
11:57AM 59.6000 -103.1500 296° West 410 472 43,000  Level Edmonton Center
11:58AM 59.6833 -103.3167 315° West 410 472 43,000  Level Edmonton Center
11:59AM 59.7333 -103.5167 296° West 410 472 43,000  Level Edmonton Center
12:00PM 59.8000 -103.7167 304° West 410 472 43,000  Level Edmonton Center
12:01PM 59.8500 -103.9167 297° West 410 472 43,000  Level Edmonton Center
12:02PM 59.9167 -104.1167 304° West 410 472 43,000  Level Edmonton Center
12:03PM 59.9667 -104.3167 297° West 420 483 43,000  Level Edmonton Center
12:04PM 60.0500 -104.5167 310° West 420 483 43,000  Level Edmonton Center
12:05PM 60.1000 -104.7167 297° West 410 472 43,000  Level Edmonton Center
12:06PM 60.1667 -104.9167 304° West 410 472 43,000  Level Edmonton Center
12:07PM 60.2167 -105.1333 295° West 410 472 43,000  Level Edmonton Center
12:08PM 60.2833 -105.3333 304° West 410 472 43,000  Level Edmonton Center
12:09PM 60.3333 -105.5333 297° West 410 472 43,000  Level Edmonton Center
12:10PM 60.4000 -105.7167 306° West 410 472 43,000  Level Edmonton Center
12:11PM 60.4500 -105.9167 297° West 410 472 43,000  Level Edmonton Center
12:12PM 60.5167 -106.1667 299° West 410 472 43,000  Level Edmonton Center
12:13PM 60.5667 -106.3667 297° West 410 472 43,000  Level Edmonton Center
12:14PM 60.6333 -106.5833 302° West 410 472 43,000  Level Edmonton Center
12:15PM 60.6833 -106.7667 299° West 420 483 43,000  Level Edmonton Center
12:16PM 60.7333 -106.9667 297° West 420 483 43,000  Level Edmonton Center
12:17PM 60.8000 -107.1833 302° West 420 483 43,000  Level Edmonton Center
12:18PM 60.8500 -107.4000 295° West 420 483 43,000  Level Edmonton Center
12:19PM 60.9167 -107.6167 302° West 410 472 43,000  Level Edmonton Center
12:20PM 60.9667 -107.8167 297° West 420 483 43,000  Level Edmonton Center
12:21PM 61.0333 -108.0333 302° West 420 483 43,000  Level Edmonton Center
12:22PM 61.0667 -108.2500 288° West 420 483 43,000  Level Edmonton Center
12:23PM 61.1333 -108.4667 303° West 420 483 43,000  Level Edmonton Center
12:24PM 61.1833 -108.6833 296° West 420 483 43,000  Level Edmonton Center
12:25PM 61.2500 -108.9167 301° West 420 483 43,000  Level Edmonton Center
12:26PM 61.3000 -109.1333 296° West 420 483 43,000  Level Edmonton Center
12:27PM 61.3500 -109.3500 296° West 420 483 43,000  Level Edmonton Center
12:28PM 61.4167 -109.5667 303° West 420 483 43,000  Level Edmonton Center
12:29PM 61.4500 -109.7833 288° West 420 483 43,000  Level Edmonton Center
12:30PM 61.5167 -110.0167 301° West 420 483 43,000  Level Edmonton Center
12:31PM 61.5667 -110.2333 296° West 420 483 43,000  Level Edmonton Center
12:32PM 61.6167 -110.4500 296° West 420 483 43,000  Level Edmonton Center
12:33PM 61.6667 -110.6833 294° West 420 483 43,000  Level Edmonton Center
12:34PM 61.7167 -110.9000 296° West 420 483 43,000  Level Edmonton Center
12:35PM 61.7667 -111.1333 294° West 420 483 43,000  Level Edmonton Center
12:36PM 61.8167 -111.3500 296° West 420 483 43,000  Level Edmonton Center
12:37PM 61.8667 -111.5833 295° West 420 483 43,000  Level Edmonton Center
12:38PM 61.9333 -111.8167 301° West 420 483 43,000  Level Edmonton Center
12:39PM 61.9667 -112.0500 287° West 420 483 43,000  Level Edmonton Center
12:40PM 62.0167 -112.2667 296° West 430 495 43,000  Level Edmonton Center
12:41PM 62.0833 -112.5500 297° West 430 495 43,000  Level Edmonton Center
12:42PM 62.1167 -112.7667 288° West 430 495 43,000  Level Edmonton Center
12:43PM 62.1667 -113.0000 295° West 430 495 43,000  Level Edmonton Center
12:44PM 62.2333 -113.2333 302° West 430 495 43,000  Level Edmonton Center
12:45PM 62.2667 -113.4667 287° West 430 495 43,000  Level Edmonton Center
12:46PM 62.3167 -113.7000 295° West 430 495 43,000  Level Edmonton Center
12:47PM 62.3500 -113.9333 287° West 430 495 43,000  Level Edmonton Center
12:48PM 62.4000 -114.1667 295° West 430 495 43,000  Level Edmonton Center
12:49PM 62.4500 -114.4500 291° West 440 506 43,000  Level Edmonton Center
12:50PM 62.5000 -114.8000 287° West 440 506 43,000  Level Edmonton Center
12:51PM 62.5333 -115.0667 285° West 440 506 43,000  Level Edmonton Center
12:52PM 62.5500 -115.3000 279° West 440 506 43,000  Level Edmonton Center
12:53PM 62.5833 -115.5667 285° West 430 495 43,000  Level Edmonton Center
12:54PM 62.6167 -115.8333 285° West 430 495 43,000  Level Edmonton Center
12:55PM 62.6333 -116.0667 279° West 430 495 43,000  Level Edmonton Center
12:56PM 62.6667 -116.3500 284° West 430 495 43,000  Level Edmonton Center
12:57PM 62.7000 -116.5833 287° West 430 495 43,000  Level Edmonton Center
12:58PM 62.7167 -116.8500 278° West 430 495 43,000  Level Edmonton Center
12:59PM 62.7333 -117.1167 278° West 440 506 43,000  Level Edmonton Center
01:00PM 62.7667 -117.4000 285° West 440 506 43,000 300 Level Edmonton Center
01:01PM 62.7833 -117.6667 278° West 440 506 43,600 600 Climbing Edmonton Center
01:02PM 62.8167 -117.9500 285° West 450 518 44,200 600 Climbing Edmonton Center
01:03PM 62.8333 -118.2167 278° West 450 518 44,800 660 Climbing Edmonton Center
01:04PM 62.8500 -118.4500 279° West 450 518 45,600 600 Climbing Edmonton Center
01:05PM 62.8833 -118.7333 285° West 440 506 46,100 360 Climbing Edmonton Center
01:06PM 62.9000 -119.0167 277° West 450 518 46,400 300 Climbing Edmonton Center
01:07PM 62.9333 -119.2833 285° West 450 518 46,800 300 Climbing Edmonton Center
01:08PM 62.9333 -119.5500 270° West 450 518 47,000 60 Climbing Edmonton Center
01:09PM 62.9500 -119.8333 277° West 450 518 47,000  Level Edmonton Center
01:10PM 62.9833 -120.1167 285° West 460 529 47,000  Level Edmonton Center
01:11PM 63.0000 -120.4000 278° West 460 529 47,000  Level Edmonton Center
01:12PM 63.0167 -120.6667 278° West 460 529 47,000  Level Edmonton Center
01:13PM 63.0500 -120.9500 285° West 460 529 47,000  Level Edmonton Center
01:14PM 63.0667 -121.2333 278° West 460 529 47,000  Level Edmonton Center
01:15PM 63.0833 -121.5167 278° West 460 529 47,000  Level Edmonton Center
01:16PM 63.1000 -121.8000 278° West 460 529 47,000  Level Edmonton Center
01:17PM 63.1167 -122.0833 278° West 460 529 47,000  Level Edmonton Center
01:18PM 63.1167 -122.3500 270° West 460 529 47,000  Level Edmonton Center
01:19PM 63.1333 -122.6333 278° West 460 529 47,000  Level Edmonton Center
01:20PM 63.1500 -122.9500 277° West 460 529 47,000  Level Edmonton Center
01:21PM 63.1667 -123.2000 279° West 460 529 47,000  Level Edmonton Center
01:22PM 63.1833 -123.4833 278° West 460 529 47,000  Level Edmonton Center
01:23PM 63.2000 -123.8000 277° West 460 529 47,000  Level Edmonton Center
01:25PM 63.2157 -124.1276 276° West  Level FlightAware Approximate
01:32PM 63.2914 -126.0190 276° West  Level FlightAware Approximate
01:33PM 63.3002 -126.2900 274° West  Level FlightAware Approximate
01:34PM 63.3085 -126.5611 274° West  Level FlightAware Approximate
01:35PM 63.3162 -126.8323 274° West  Level FlightAware Approximate
01:36PM 63.3234 -127.1037 274° West  Level FlightAware Approximate
01:37PM 63.3301 -127.3753 273° West  Level FlightAware Approximate
01:38PM 63.3363 -127.6469 273° West  Level FlightAware Approximate
01:39PM 63.3420 -127.9187 273° West  Level FlightAware Approximate
01:40PM 63.3471 -128.1905 273° West  Level FlightAware Approximate
01:41PM 63.3518 -128.4625 272° West  Level FlightAware Approximate
01:42PM 63.3559 -128.7345 272° West  Level FlightAware Approximate
01:43PM 63.3595 -129.0067 272° West  Level FlightAware Approximate
01:44PM 63.3626 -129.2788 272° West  Level FlightAware Approximate
01:45PM 63.3651 -129.5511 271° West  Level FlightAware Approximate
01:46PM 63.3672 -129.8233 271° West  Level FlightAware Approximate
01:47PM 63.3687 -130.0957 271° West  Level FlightAware Approximate
01:48PM 63.3697 -130.3680 271° West  Level FlightAware Approximate
01:49PM 63.3702 -130.6403 270° West  Level FlightAware Approximate
01:50PM 63.3702 -130.9127 270° West  Level FlightAware Approximate
01:51PM 63.3696 -131.1843 270° West  Level FlightAware Approximate
01:52PM 63.3686 -131.4559 270° West  Level FlightAware Approximate
01:53PM 63.3670 -131.7274 269° West  Level FlightAware Approximate
01:54PM 63.3649 -131.9989 269° West  Level FlightAware Approximate
01:55PM 63.3623 -132.2704 269° West  Level FlightAware Approximate
01:56PM 63.3592 -132.5419 269° West  Level FlightAware Approximate
01:57PM 63.3555 -132.8132 268° West  Level FlightAware Approximate
01:58PM 63.3514 -133.0845 268° West  Level FlightAware Approximate
01:59PM 63.3467 -133.3557 268° West  Level FlightAware Approximate
02:00PM 63.3415 -133.6268 268° West  Level FlightAware Approximate
02:01PM 63.3358 -133.8978 267° West  Level FlightAware Approximate
02:02PM 63.3296 -134.1687 267° West  Level FlightAware Approximate
02:03PM 63.3229 -134.4395 267° West  Level FlightAware Approximate
02:04PM 63.3157 -134.7101 267° West  Level FlightAware Approximate
02:05PM 63.3079 -134.9807 266° West  Level FlightAware Approximate
02:06PM 63.2997 -135.2510 266° West  Level FlightAware Approximate
02:07PM 63.2909 -135.5212 266° West  Level FlightAware Approximate
02:08PM 63.2816 -135.7912 266° West  Level FlightAware Approximate
02:09PM 63.2718 -136.0611 266° West  Level FlightAware Approximate
02:10PM 63.2615 -136.3307 265° West  Level FlightAware Approximate
02:11PM 63.2507 -136.6002 265° West  Level FlightAware Approximate
02:12PM 63.2393 -136.8694 265° West  Level FlightAware Approximate
02:13PM 63.2275 -137.1385 265° West  Level FlightAware Approximate
02:14PM 63.2152 -137.4073 264° West  Level FlightAware Approximate
02:15PM 63.2023 -137.6759 264° West  Level FlightAware Approximate
02:16PM 63.1890 -137.9442 264° West  Level FlightAware Approximate
02:17PM 63.1751 -138.2123 264° West  Level FlightAware Approximate
02:18PM 63.1608 -138.4801 263° West  Level FlightAware Approximate
02:19PM 63.1459 -138.7477 263° West  Level FlightAware Approximate
02:20PM 63.1305 -139.0149 263° West  Level FlightAware Approximate
02:20PM 63.0333 -140.2500 262° West 800 921 47,000  Level Anchorage Center
02:21PM 63.1147 -139.2819 263° West  Level FlightAware Approximate
02:21PM 63.0333 -140.5167 270° West 580 667 47,000  Level Anchorage Center
02:22PM 63.0983 -139.5486 262° West  Level FlightAware Approximate
02:22PM 63.0167 -140.7833 262° West 490 564 47,000  Level Anchorage Center
02:23PM 63.0814 -139.8150 262° West  Level FlightAware Approximate
02:23PM 63.0000 -141.0667 263° West 480 552 47,000  Level Anchorage Center
02:24PM 63.0640 -140.0811 262° West  Level FlightAware Approximate
02:24PM 62.9833 -141.3500 263° West 470 541 47,000  Level Anchorage Center
02:25PM 63.0462 -140.3468 262° West  Level FlightAware Approximate
02:25PM 62.9667 -141.6333 263° West 480 552 47,000  Level Anchorage Center
02:26PM 62.9333 -141.9167 256° West 470 541 47,000  Level Anchorage Center
02:27PM 62.9000 -142.1833 255° West 450 518 47,000  Level Anchorage Center
02:28PM 62.8667 -142.4667 256° West 460 529 47,000  Level Anchorage Center
02:29PM 62.8167 -142.7500 249° West 480 552 47,000  Level Anchorage Center
02:30PM 62.7833 -143.0167 255° West 470 541 47,000  Level Anchorage Center
02:31PM 62.7500 -143.2833 255° West 480 552 47,000  Level Anchorage Center
02:32PM 62.7000 -143.5667 249° West 480 552 47,000  Level Anchorage Center
02:33PM 62.6667 -143.8333 255° West 470 541 47,000  Level Anchorage Center
02:34PM 62.6167 -144.1000 248° West 470 541 47,000  Level Anchorage Center
02:35PM 62.5833 -144.3833 256° West 470 541 47,000  Level Anchorage Center
02:36PM 62.5333 -144.6500 248° West 470 541 47,000  Level Anchorage Center
02:37PM 62.4833 -144.9167 248° West 480 552 47,000  Level Anchorage Center
02:38PM 62.4500 -145.2000 256° West 480 552 47,000 -600 Level Anchorage Center
02:39PM 62.4000 -145.4667 248° West 480 552 45,900 -1,680 Descending Anchorage Center
02:40PM 62.3667 -145.7167 254° West 460 529 43,700 -2,040 Descending Anchorage Center
02:41PM 62.3167 -145.9833 248° West 460 529 41,800 -1,860 Descending Anchorage Center
02:42PM 62.2667 -146.2500 248° West 470 541 40,000 -1,860 Descending Anchorage Center
02:43PM 62.2167 -146.5167 248° West 470 541 38,100 -1,920 Descending Anchorage Center
02:44PM 62.1833 -146.7667 254° West 460 529 36,200 -1,920 Descending Anchorage Center
02:45PM 62.1333 -147.0000 245° Southwest 470 541 34,300 -1,860 Descending Anchorage Center
02:46PM 62.0833 -147.2500 247° West 460 529 32,500 -1,860 Descending Anchorage Center
02:47PM 62.0333 -147.5667 252° West 470 541 30,600 -1,860 Descending Anchorage Center
02:48PM 61.9833 -147.8000 246° West 440 506 28,800 -1,800 Descending Anchorage Center
02:49PM 61.9500 -148.0500 254° West 430 495 27,100 -1,680 Descending Anchorage Center
02:50PM 61.9000 -148.2667 244° Southwest 410 472 25,500 -1,680 Descending Anchorage Center
02:51PM 61.8500 -148.5000 246° West 400 460 23,800 -1,680 Descending Anchorage Center
02:52PM 61.8167 -148.7000 251° West 390 449 22,200 -1,620 Descending Anchorage Center
02:54PM 61.7480 -149.0331 247° West  Level FlightAware Approximate
03:01PM 61.1895 -149.9833 180° South  Level FlightAware Approximate
03:02PM 61.1667 -149.9833 180° South  Level FlightAware Approximate
03:03PM 61.1741 -149.9982 180° South  Level Estimated
03:04PM 61.1741 -149.9982 180° South  Level Estimated
03:05PM 61.1741 -149.9982 180° South  Level Estimated
03:06PM 61.1741 -149.9982 180° South  Level Estimated
03:07PM 61.1741 -149.9982 180° South  Level Estimated
03:08PM 61.1741 -149.9982 180° South  Level Estimated
03:09PM 61.1741 -149.9982 180° South  Level Estimated
03:10PM 61.1741 -149.9982 180° South  Level Estimated
03:11PM 61.1741 -149.9982 180° South  Level Estimated
03:12PM 61.1741 -149.9982 180° South  Level Estimated
03:13PM 61.1741 -149.9982 180° South  Level Estimated
03:14PM 61.1741 -149.9982 180° South  Level Estimated
03:15PM 61.1741 -149.9982 180° South  Level Estimated
03:16PM 61.1741 -149.9982 180° South  Level Estimated
03:17PM 61.1741 -149.9982 180° South  Level Estimated
03:18PM 61.1741 -149.9982 180° South  Level Estimated
03:19PM 61.1741 -149.9982 180° South  Level Estimated
03:20PM 61.1741 -149.9982 180° South  Level Estimated
03:21PM 61.1741 -149.9982 180° South  Level Estimated